Time;durP1;ratioP1;P1;durP2;ratioP2;P2;SDS_P1;SDS_P2;PMS_P1;PMS_P2;Temp;Humidity;BMP_temperature;BMP_pressure;BME280_temperature;BME280_humidity;BME280_pressure;Samples;Min_cycle;Max_cycle;Signal;HPM_P1;HPM_P2
2022/07/28 00:02:20;;;;;;;5.63;0.85;;;16.30;77.80;;;;;;5029570;28;20168;-72
2022/07/28 00:04:46;;;;;;;3.55;0.85;;;16.20;77.30;;;;;;5030014;28;20114;-71
2022/07/28 00:07:12;;;;;;;7.07;1.02;;;16.10;77.60;;;;;;5030404;28;20079;-71
2022/07/28 00:09:38;;;;;;;2.35;0.77;;;16.00;78.30;;;;;;5029858;28;20040;-71
2022/07/28 00:12:04;;;;;;;3.28;0.90;;;16.00;78.50;;;;;;5030560;28;20029;-71
2022/07/28 00:14:29;;;;;;;2.67;1.08;;;15.90;79.10;;;;;;5029399;28;20470;-71
2022/07/28 00:16:55;;;;;;;2.58;0.80;;;15.90;79.20;;;;;;5030926;28;20371;-71
2022/07/28 00:19:21;;;;;;;3.22;1.13;;;15.80;79.20;;;;;;5030575;28;20057;-71
2022/07/28 00:21:47;;;;;;;5.15;0.90;;;15.80;79.50;;;;;;5029372;28;20044;-72
2022/07/28 00:24:13;;;;;;;9.88;1.20;;;15.80;79.60;;;;;;5030344;28;20034;-70
2022/07/28 00:26:38;;;;;;;5.03;0.95;;;15.80;79.70;;;;;;5030441;28;20025;-71
2022/07/28 00:29:04;;;;;;;5.82;1.20;;;15.70;80.00;;;;;;5030285;28;20581;-72
2022/07/28 00:31:30;;;;;;;3.80;0.90;;;15.70;80.10;;;;;;5030815;28;20072;-72
2022/07/28 00:33:56;;;;;;;5.55;0.90;;;15.70;80.30;;;;;;5029019;28;20049;-72
2022/07/28 00:36:22;;;;;;;3.30;1.10;;;15.60;80.80;;;;;;5030302;28;20069;-72
2022/07/28 00:38:47;;;;;;;2.13;0.80;;;15.60;80.00;;;;;;5030286;28;20494;-73
2022/07/28 00:41:13;;;;;;;4.85;1.10;;;15.50;81.00;;;;;;5029264;28;20025;-72
2022/07/28 00:43:45;;;;;;;2.97;1.08;;;15.50;81.50;;;;;;5030622;28;20447;-71
2022/07/28 00:46:12;;;;;;;6.15;0.82;;;15.40;81.70;;;;;;5029187;28;20037;-72
2022/07/28 00:48:43;;;;;;;3.38;1.35;;;15.40;81.70;;;;;;5030103;28;20482;-70
2022/07/28 00:51:10;;;;;;;4.55;1.10;;;15.40;82.00;;;;;;5030161;28;20127;-70
2022/07/28 00:53:37;;;;;;;6.40;1.05;;;15.30;82.40;;;;;;5029810;28;20040;-72
2022/07/28 00:56:06;;;;;;;3.78;1.00;;;15.30;82.60;;;;;;5029241;28;20041;-70
2022/07/28 00:58:33;;;;;;;4.10;0.95;;;15.30;83.10;;;;;;5030821;28;20032;-70
2022/07/28 01:00:59;;;;;;;5.60;1.00;;;15.20;83.50;;;;;;5029757;28;20112;-72
2022/07/28 01:03:25;;;;;;;3.25;1.40;;;15.20;83.50;;;;;;5029539;28;20125;-72
2022/07/28 01:06:05;;;;;;;3.25;0.98;;;15.10;83.70;;;;;;5030314;28;20057;-71
2022/07/28 01:08:52;;;;;;;3.50;0.82;;;15.10;84.00;;;;;;5029676;28;20549;-71
2022/07/28 01:11:38;;;;;;;2.15;0.73;;;15.10;84.20;;;;;;5030041;28;20515;-72
2022/07/28 01:14:22;;;;;;;8.18;1.30;;;15.00;84.10;;;;;;5028698;28;20120;-71
2022/07/28 01:17:10;;;;;;;1.67;1.05;;;15.00;84.50;;;;;;5030385;28;20079;-71
2022/07/28 01:19:42;;;;;;;;;;;14.90;85.20;;;;;;5030555;28;20111;-71
2022/07/28 01:22:16;;;;;;;4.07;0.95;;;14.90;85.20;;;;;;5032242;28;19913;-71
2022/07/28 01:25:00;;;;;;;6.78;0.95;;;14.90;85.40;;;;;;5033020;28;20112;-71
2022/07/28 01:27:47;;;;;;;3.00;0.90;;;14.90;85.40;;;;;;5033661;28;20029;-71
2022/07/28 01:30:25;;;;;;;3.78;1.10;;;14.90;86.10;;;;;;5033727;28;20040;-72
2022/07/28 01:32:59;;;;;;;4.43;0.98;;;14.90;85.70;;;;;;5033472;28;20471;-71
2022/07/28 01:35:29;;;;;;;2.45;1.02;;;14.90;86.70;;;;;;5028133;28;20026;-70
2022/07/28 01:37:59;;;;;;;8.43;1.08;;;14.80;86.70;;;;;;5013986;28;20029;-70
2022/07/28 01:40:29;;;;;;;3.83;1.08;;;14.80;86.60;;;;;;5013679;28;20360;-71
2022/07/28 01:42:59;;;;;;;5.97;1.20;;;14.90;86.30;;;;;;5013351;28;20030;-72
2022/07/28 01:45:25;;;;;;;3.97;1.00;;;14.80;86.30;;;;;;5012552;28;20048;-71
2022/07/28 01:47:54;;;;;;;6.05;1.20;;;14.90;86.70;;;;;;5013722;28;20526;-72
2022/07/28 01:50:23;;;;;;;3.25;0.80;;;14.90;86.90;;;;;;5013307;28;20042;-71
2022/07/28 01:52:50;;;;;;;8.77;1.30;;;14.80;87.20;;;;;;5013724;28;20479;-73
2022/07/28 01:55:21;;;;;;;2.72;0.85;;;14.80;87.30;;;;;;5013274;28;20078;-72
2022/07/28 01:57:48;;;;;;;3.67;1.27;;;14.80;87.70;;;;;;5013480;28;20364;-71
2022/07/28 02:00:15;;;;;;;3.22;1.17;;;14.80;86.80;;;;;;5013258;28;20044;-72
2022/07/28 02:02:46;;;;;;;3.33;1.10;;;14.70;87.90;;;;;;5013048;28;20021;-72
2022/07/28 02:05:15;;;;;;;4.22;1.25;;;14.60;88.30;;;;;;5013299;28;20037;-72
2022/07/28 02:07:44;;;;;;;3.92;0.95;;;14.60;88.10;;;;;;5013458;28;20018;-72
2022/07/28 02:10:13;;;;;;;8.27;1.60;;;14.50;88.30;;;;;;5012014;28;20359;-72
2022/07/28 02:12:40;;;;;;;4.80;1.08;;;14.50;88.50;;;;;;5011860;28;20022;-72
2022/07/28 02:15:10;;;;;;;2.63;1.00;;;14.40;88.90;;;;;;5013020;28;20034;-72
2022/07/28 02:17:37;;;;;;;6.28;1.63;;;14.30;88.90;;;;;;5012791;28;20026;-72
2022/07/28 02:20:07;;;;;;;8.73;1.20;;;14.20;89.30;;;;;;5012712;28;20022;-72
2022/07/28 02:22:34;;;;;;;4.97;1.90;;;14.10;90.00;;;;;;5013349;28;20349;-72
2022/07/28 02:25:00;;;;;;;6.38;1.38;;;14.10;89.80;;;;;;5012659;28;20045;-73
2022/07/28 02:27:41;;;;;;;6.38;1.35;;;14.10;90.10;;;;;;5012651;28;20088;-72
2022/07/28 02:30:15;;;;;;;3.85;1.42;;;14.00;90.30;;;;;;5012749;28;20041;-72
2022/07/28 02:32:50;;;;;;;5.07;1.20;;;14.10;90.30;;;;;;5011623;28;20030;-71
2022/07/28 02:35:24;;;;;;;3.92;1.23;;;14.10;90.30;;;;;;5012346;28;20030;-71
2022/07/28 02:37:59;;;;;;;5.38;0.90;;;14.10;90.40;;;;;;5013169;28;20396;-72
2022/07/28 02:40:32;;;;;;;2.75;1.08;;;14.00;90.60;;;;;;5011380;28;20476;-71
2022/07/28 02:42:58;;;;;;;5.07;1.25;;;14.00;90.40;;;;;;5012531;28;20097;-72
2022/07/28 02:45:27;;;;;;;4.85;1.27;;;14.00;90.20;;;;;;5012250;28;20121;-71
2022/07/28 02:47:56;;;;;;;3.90;1.02;;;13.90;90.60;;;;;;5011117;28;20465;-71
2022/07/28 02:50:26;;;;;;;8.90;1.52;;;13.90;90.70;;;;;;5012196;28;20053;-72
2022/07/28 02:53:03;;;;;;;11.98;1.88;;;13.90;90.90;;;;;;5012478;28;20032;-71
2022/07/28 02:55:30;;;;;;;4.03;1.63;;;13.90;90.80;;;;;;5012305;28;20054;-70
2022/07/28 02:57:58;;;;;;;3.13;1.00;;;13.80;90.50;;;;;;5012108;28;20267;-72
2022/07/28 03:00:25;;;;;;;2.15;1.17;;;13.80;90.80;;;;;;5012134;28;20749;-71
2022/07/28 03:02:54;;;;;;;6.50;1.42;;;13.70;91.20;;;;;;5012215;28;20033;-72
2022/07/28 03:05:19;;;;;;;7.20;1.50;;;13.70;91.40;;;;;;5012047;28;20095;-72
2022/07/28 03:07:51;;;;;;;8.13;1.48;;;13.70;91.30;;;;;;5012293;28;20030;-71
2022/07/28 03:10:22;;;;;;;6.50;1.48;;;13.70;91.20;;;;;;5010616;28;20411;-71
2022/07/28 03:12:48;;;;;;;6.35;2.13;;;13.70;90.80;;;;;;5011619;28;20080;-71
2022/07/28 03:15:15;;;;;;;2.95;1.33;;;13.60;91.40;;;;;;5012047;28;20158;-72
2022/07/28 03:17:40;;;;;;;3.63;1.48;;;13.60;91.40;;;;;;5011661;28;20041;-72
2022/07/28 03:20:08;;;;;;;5.60;1.40;;;13.70;91.40;;;;;;5011959;28;20022;-71
2022/07/28 03:22:34;;;;;;;4.13;1.33;;;13.70;91.50;;;;;;5012530;28;20025;-70
2022/07/28 03:25:03;;;;;;;3.67;1.52;;;13.70;91.40;;;;;;5011661;28;20436;-71
2022/07/28 03:27:33;;;;;;;4.25;1.38;;;13.70;91.50;;;;;;5011636;28;20120;-71
2022/07/28 03:30:13;;;;;;;4.63;1.52;;;13.60;91.60;;;;;;5010537;28;20022;-71
2022/07/28 03:32:52;;;;;;;9.07;1.50;;;13.70;91.60;;;;;;5011434;28;20029;-71
2022/07/28 03:35:18;;;;;;;5.45;1.25;;;13.60;91.90;;;;;;5011386;28;20054;-71
2022/07/28 03:37:53;;;;;;;1.48;1.05;;;13.70;91.60;;;;;;5010833;28;20425;-71
2022/07/28 03:40:20;;;;;;;2.80;1.25;;;13.70;91.80;;;;;;5011362;28;20360;-72
2022/07/28 03:42:47;;;;;;;3.13;0.93;;;13.70;91.90;;;;;;5011181;28;20092;-72
2022/07/28 03:45:17;;;;;;;5.70;1.92;;;13.70;91.90;;;;;;5010149;28;20034;-71
2022/07/28 03:47:56;;;;;;;8.10;2.10;;;13.70;91.90;;;;;;5011278;28;20121;-72
2022/07/28 03:50:27;;;;;;;2.97;1.10;;;13.70;92.00;;;;;;5010056;28;20038;-71
2022/07/28 03:52:54;;;;;;;3.38;1.25;;;13.70;92.00;;;;;;5011852;28;20030;-71
2022/07/28 03:55:21;;;;;;;6.03;1.27;;;13.70;91.90;;;;;;5011098;28;20372;-70
2022/07/28 03:57:47;;;;;;;6.25;1.05;;;13.70;91.90;;;;;;5011009;28;20028;-72
2022/07/28 04:00:15;;;;;;;3.47;1.23;;;13.60;92.00;;;;;;5011252;28;20038;-71
2022/07/28 04:02:42;;;;;;;;;;;13.70;92.10;;;;;;5010392;28;20033;-71
2022/07/28 04:05:18;;;;;;;4.07;0.70;;;13.70;92.20;;;;;;5011068;28;20309;-72
2022/07/28 04:07:47;;;;;;;2.38;1.20;;;13.70;92.40;;;;;;5011471;28;20456;-71
2022/07/28 04:10:16;;;;;;;5.00;1.10;;;13.70;92.50;;;;;;5010946;28;20037;-70
2022/07/28 04:12:46;;;;;;;3.60;1.38;;;13.70;92.20;;;;;;5010833;28;20558;-71
2022/07/28 04:15:13;;;;;;;3.65;1.35;;;13.80;92.40;;;;;;5011013;28;20129;-70
2022/07/28 04:17:39;;;;;;;5.95;1.35;;;13.80;92.50;;;;;;5011091;28;20139;-71
2022/07/28 04:20:06;;;;;;;8.32;1.85;;;13.90;92.30;;;;;;5010717;28;20072;-71
2022/07/28 04:22:32;;;;;;;8.05;1.77;;;13.80;92.60;;;;;;5011140;28;20077;-71
2022/07/28 04:24:58;;;;;;;10.23;1.20;;;13.90;92.70;;;;;;5010777;28;20436;-71
2022/07/28 04:27:23;;;;;;;9.95;1.70;;;13.90;92.50;;;;;;5010900;28;20388;-70
2022/07/28 04:29:49;;;;;;;8.38;1.27;;;13.90;92.30;;;;;;5010763;28;20037;-72
2022/07/28 04:32:15;;;;;;;7.85;1.65;;;13.90;92.30;;;;;;5010684;28;20022;-72
2022/07/28 04:34:40;;;;;;;6.22;1.50;;;13.90;92.90;;;;;;5011092;28;20030;-72
2022/07/28 04:37:07;;;;;;;3.97;1.17;;;13.90;92.60;;;;;;5010746;28;20445;-71
2022/07/28 04:39:34;;;;;;;5.15;1.50;;;14.10;92.60;;;;;;5010561;28;20460;-72
2022/07/28 04:41:59;;;;;;;6.85;1.77;;;14.00;92.50;;;;;;5010600;28;20034;-72
2022/07/28 04:44:25;;;;;;;10.00;2.05;;;14.00;92.50;;;;;;5009331;28;20037;-71
2022/07/28 04:46:51;;;;;;;4.40;1.30;;;14.10;92.70;;;;;;5009889;28;20095;-70
2022/07/28 04:49:17;;;;;;;7.45;2.38;;;14.10;92.50;;;;;;5010372;28;20111;-72
2022/07/28 04:51:48;;;;;;;14.05;2.88;;;14.20;92.70;;;;;;5009361;28;20336;-71
2022/07/28 04:54:14;;;;;;;6.95;1.65;;;14.10;92.90;;;;;;5010555;28;20081;-71
2022/07/28 04:56:40;;;;;;;10.90;3.88;;;14.20;92.80;;;;;;5012372;28;20586;-71
2022/07/28 04:59:05;;;;;;;5.93;1.38;;;14.40;92.80;;;;;;5014560;28;20112;-72
2022/07/28 05:01:32;;;;;;;8.55;2.30;;;14.40;92.70;;;;;;5013668;28;20116;-71
2022/07/28 05:03:57;;;;;;;8.40;1.83;;;14.40;93.20;;;;;;5013192;28;20116;-74
2022/07/28 05:06:23;;;;;;;9.02;1.95;;;14.40;93.30;;;;;;5014191;28;20109;-71
2022/07/28 05:08:49;;;;;;;9.07;1.88;;;14.50;93.50;;;;;;5014233;28;20417;-71
2022/07/28 05:11:15;;;;;;;7.72;1.52;;;14.50;93.30;;;;;;5014162;28;20022;-73
2022/07/28 05:13:41;;;;;;;5.88;1.45;;;14.60;92.90;;;;;;5014342;28;20026;-74
2022/07/28 05:16:07;;;;;;;12.45;1.63;;;14.60;92.90;;;;;;5012775;28;20357;-72
2022/07/28 05:18:33;;;;;;;8.35;1.75;;;14.70;92.90;;;;;;5014095;28;20044;-72
2022/07/28 05:20:59;;;;;;;5.03;2.00;;;14.70;93.00;;;;;;5013830;28;20199;-74
2022/07/28 05:23:25;;;;;;;10.90;1.48;;;14.90;92.90;;;;;;5013858;28;20064;-73
2022/07/28 05:25:51;;;;;;;8.68;2.28;;;14.90;93.60;;;;;;5014258;28;20578;-73
2022/07/28 05:28:17;;;;;;;7.40;1.77;;;15.00;93.70;;;;;;5013946;28;20121;-74
2022/07/28 05:30:43;;;;;;;9.75;2.15;;;15.00;93.40;;;;;;5013682;28;20185;-74
2022/07/28 05:33:08;;;;;;;9.30;2.35;;;15.20;93.40;;;;;;5013428;28;20287;-74
2022/07/28 05:35:34;;;;;;;6.00;1.63;;;15.20;93.30;;;;;;5013485;28;20032;-74
2022/07/28 05:38:00;;;;;;;16.23;2.17;;;15.30;93.30;;;;;;5013955;28;20045;-76
2022/07/28 05:40:26;;;;;;;8.05;1.52;;;15.30;93.30;;;;;;5013792;28;20018;-71
2022/07/28 05:42:52;;;;;;;8.23;1.95;;;15.30;93.20;;;;;;5012193;28;20030;-71
2022/07/28 05:45:18;;;;;;;7.35;1.70;;;15.40;93.00;;;;;;5013339;28;20041;-70
2022/07/28 05:47:51;;;;;;;6.82;1.80;;;15.50;93.10;;;;;;5013324;28;20348;-71
2022/07/28 05:50:19;;;;;;;7.78;1.85;;;15.50;92.90;;;;;;5013234;28;20040;-73
2022/07/28 05:52:46;;;;;;;6.00;2.00;;;15.50;92.90;;;;;;5012633;28;20026;-72
2022/07/28 05:55:12;;;;;;;8.27;1.85;;;15.60;92.50;;;;;;5013433;28;20222;-73
2022/07/28 05:57:38;;;;;;;11.05;2.00;;;15.70;92.30;;;;;;5013333;28;20034;-71
2022/07/28 06:00:08;;;;;;;4.57;2.38;;;15.70;92.10;;;;;;5013318;28;20034;-73
2022/07/28 06:02:34;;;;;;;4.82;2.00;;;15.80;91.90;;;;;;5011854;28;20066;-73
2022/07/28 06:05:00;;;;;;;6.95;2.55;;;15.80;91.80;;;;;;5012967;28;20329;-74
2022/07/28 06:07:26;;;;;;;2.60;1.30;;;15.80;91.90;;;;;;5012235;28;20025;-72
2022/07/28 06:09:52;;;;;;;10.77;2.60;;;15.80;91.80;;;;;;5013131;28;20403;-74
2022/07/28 06:12:18;;;;;;;8.48;2.15;;;15.90;92.00;;;;;;5011866;28;20090;-72
2022/07/28 06:14:43;;;;;;;11.07;2.33;;;15.90;91.70;;;;;;5013023;28;20352;-74
2022/07/28 06:17:09;;;;;;;7.93;3.17;;;15.90;91.90;;;;;;5012738;28;20026;-73
2022/07/28 06:19:34;;;;;;;5.63;1.75;;;16.00;91.50;;;;;;5013049;28;20054;-70
2022/07/28 06:22:02;;;;;;;6.15;1.88;;;16.00;91.40;;;;;;5012713;28;20034;-70
2022/07/28 06:24:28;;;;;;;122.65;61.55;;;16.00;91.20;;;;;;5012698;28;20101;-70
2022/07/28 06:26:54;;;;;;;230.18;119.45;;;16.00;91.20;;;;;;5012784;28;20480;-73
2022/07/28 06:29:21;;;;;;;142.25;75.50;;;16.00;91.10;;;;;;5012501;28;20037;-74
2022/07/28 06:31:47;;;;;;;261.42;124.82;;;16.10;90.90;;;;;;5012725;28;20472;-70
2022/07/28 06:34:12;;;;;;;302.75;165.02;;;16.10;90.60;;;;;;5011274;28;20185;-72
2022/07/28 06:36:38;;;;;;;17.20;8.77;;;16.20;90.50;;;;;;5012420;28;20105;-75
2022/07/28 06:39:04;;;;;;;8.40;2.20;;;16.30;90.40;;;;;;5012197;28;20030;-74
2022/07/28 06:41:29;;;;;;;6.47;1.55;;;16.30;90.40;;;;;;5012564;28;20026;-72
2022/07/28 06:43:55;;;;;;;4.82;1.20;;;16.40;90.50;;;;;;5013065;28;20064;-73
2022/07/28 06:46:21;;;;;;;7.63;1.63;;;16.40;90.30;;;;;;5013104;28;20038;-73
2022/07/28 06:48:47;;;;;;;9.90;1.67;;;16.50;90.40;;;;;;5012580;28;20029;-74
2022/07/28 06:51:17;;;;;;;7.53;1.63;;;16.50;90.20;;;;;;5012420;28;20362;-75
2022/07/28 06:53:43;;;;;;;131.15;68.13;;;16.60;90.40;;;;;;5012127;28;20045;-73
2022/07/28 06:56:09;;;;;;;39.83;20.60;;;16.70;90.20;;;;;;5011923;28;20272;-72
2022/07/28 06:58:35;;;;;;;18.52;6.70;;;16.70;90.00;;;;;;5012612;28;20030;-73
2022/07/28 07:01:05;;;;;;;4.93;1.65;;;16.80;89.80;;;;;;5010949;28;20029;-75
2022/07/28 07:03:32;;;;;;;37.85;17.27;;;16.90;89.90;;;;;;5011978;28;20372;-74
2022/07/28 07:05:57;;;;;;;32.15;17.58;;;17.00;89.70;;;;;;5010821;28;20038;-75
2022/07/28 07:08:23;;;;;;;92.85;50.47;;;17.10;89.60;;;;;;5010744;28;20030;-75
2022/07/28 07:10:49;;;;;;;10.52;4.50;;;17.20;89.70;;;;;;5012388;28;20045;-74
2022/07/28 07:13:15;;;;;;;10.20;2.00;;;17.30;89.40;;;;;;5010719;28;20103;-75
2022/07/28 07:15:40;;;;;;;81.53;39.00;;;17.50;89.30;;;;;;5011640;28;20137;-76
2022/07/28 07:18:06;;;;;;;25.90;14.57;;;17.60;88.90;;;;;;5010586;28;20081;-72
2022/07/28 07:20:32;;;;;;;25.33;12.60;;;17.70;88.80;;;;;;5011188;28;20113;-71
2022/07/28 07:22:57;;;;;;;7.55;2.22;;;17.80;88.30;;;;;;5010521;28;20088;-71
2022/07/28 07:25:23;;;;;;;5.88;0.90;;;17.80;87.60;;;;;;5012088;28;20026;-73
2022/07/28 07:27:48;;;;;;;4.50;0.93;;;17.90;87.50;;;;;;5010359;28;20033;-73
2022/07/28 07:30:15;;;;;;;6.65;0.95;;;17.90;87.20;;;;;;5011649;28;20033;-73
2022/07/28 07:32:41;;;;;;;5.50;1.08;;;17.90;87.00;;;;;;5011483;28;20427;-75
2022/07/28 07:35:08;;;;;;;8.60;1.50;;;18.00;86.40;;;;;;5011423;28;20113;-75
2022/07/28 07:37:34;;;;;;;6.47;1.20;;;18.10;85.00;;;;;;5012326;28;20025;-73
2022/07/28 07:40:00;;;;;;;8.32;2.60;;;18.20;84.50;;;;;;5011821;28;20049;-76
2022/07/28 07:42:26;;;;;;;5.22;2.08;;;18.20;84.80;;;;;;5011676;28;20083;-76
2022/07/28 07:44:52;;;;;;;4.68;0.82;;;18.30;83.10;;;;;;5011814;28;20085;-76
2022/07/28 07:47:18;;;;;;;6.50;1.40;;;18.30;82.60;;;;;;5011745;28;20038;-77
2022/07/28 07:49:44;;;;;;;5.68;1.20;;;18.30;81.80;;;;;;5012253;28;20113;-76
2022/07/28 07:52:09;;;;;;;4.95;0.93;;;18.40;81.90;;;;;;5011505;28;20041;-75
2022/07/28 07:54:35;;;;;;;4.05;1.17;;;18.50;80.40;;;;;;5011533;28;20419;-78
2022/07/28 07:57:00;;;;;;;9.10;1.42;;;18.50;80.40;;;;;;5011273;28;20089;-76
2022/07/28 07:59:26;;;;;;;5.43;1.10;;;18.50;80.70;;;;;;5011473;28;20073;-78
2022/07/28 08:01:55;;;;;;;2.63;0.70;;;18.70;79.20;;;;;;5010932;28;20455;-77
2022/07/28 08:04:22;;;;;;;3.50;0.98;;;18.80;78.70;;;;;;5011489;28;20026;-75
2022/07/28 08:06:49;;;;;;;4.82;0.98;;;18.80;77.80;;;;;;5011251;28;20049;-78
2022/07/28 08:09:16;;;;;;;4.10;1.10;;;19.00;79.20;;;;;;5011187;28;20383;-74
2022/07/28 08:11:42;;;;;;;11.18;3.75;;;19.30;78.20;;;;;;5011206;28;20030;-74
2022/07/28 08:14:08;;;;;;;18.17;1.92;;;19.50;78.70;;;;;;5011411;28;20460;-76
2022/07/28 08:16:33;;;;;;;4.35;1.25;;;19.50;76.20;;;;;;5011681;28;20409;-76
2022/07/28 08:18:59;;;;;;;2.00;0.70;;;19.80;77.20;;;;;;5010987;28;20464;-77
2022/07/28 08:21:25;;;;;;;11.45;1.52;;;20.10;76.40;;;;;;5011510;28;20026;-77
2022/07/28 08:23:54;;;;;;;10.35;1.00;;;20.20;76.40;;;;;;5011295;28;20444;-72
2022/07/28 08:26:23;;;;;;;3.50;0.60;;;20.70;74.40;;;;;;5011109;28;20022;-73
2022/07/28 08:28:50;;;;;;;6.93;1.40;;;21.30;74.20;;;;;;5010625;28;20018;-78
2022/07/28 08:31:19;;;;;;;6.55;1.20;;;22.50;75.10;;;;;;5010494;28;20026;-77
2022/07/28 08:33:45;;;;;;;3.58;0.90;;;23.60;72.10;;;;;;5010068;28;20076;-78
2022/07/28 08:36:11;;;;;;;4.68;1.17;;;24.50;67.30;;;;;;5010196;28;20117;-77
2022/07/28 08:38:37;;;;;;;5.78;1.77;;;25.40;67.80;;;;;;5011192;28;20133;-77
2022/07/28 08:41:07;;;;;;;7.25;1.42;;;25.40;60.10;;;;;;5011244;28;20026;-76
2022/07/28 08:43:38;;;;;;;8.48;1.23;;;26.50;58.50;;;;;;5010513;28;20499;-76
2022/07/28 08:46:05;;;;;;;3.97;1.10;;;27.20;57.10;;;;;;5010066;28;20037;-80
2022/07/28 08:48:34;;;;;;;7.53;1.37;;;28.00;58.30;;;;;;5011378;28;20439;-78
2022/07/28 08:51:10;;;;;;;4.45;0.77;;;28.40;56.90;;;;;;5011178;28;20045;-78
2022/07/28 08:53:39;;;;;;;17.00;11.05;;;28.40;52.60;;;;;;5011168;28;20034;-77
2022/07/28 08:56:07;;;;;;;261.90;135.07;;;28.90;51.70;;;;;;5010905;28;20042;-74
2022/07/28 08:58:35;;;;;;;14.68;6.80;;;29.00;53.40;;;;;;5010170;28;20022;-78
2022/07/28 09:01:01;;;;;;;3.78;1.35;;;28.90;52.40;;;;;;5010004;28;20030;-79
2022/07/28 09:03:28;;;;;;;5.75;1.38;;;29.70;51.20;;;;;;5010589;28;20053;-77
2022/07/28 09:05:55;;;;;;;4.23;1.07;;;30.30;49.30;;;;;;5011000;28;20030;-79
2022/07/28 09:08:22;;;;;;;8.43;1.77;;;29.50;49.40;;;;;;5009530;28;20083;-76
2022/07/28 09:10:48;;;;;;;5.55;1.20;;;30.20;50.00;;;;;;5010074;28;20173;-78
2022/07/28 09:13:22;;;;;;;4.25;1.70;;;30.50;48.40;;;;;;5009699;28;20111;-78
2022/07/28 09:15:49;;;;;;;3.00;1.00;;;30.80;47.50;;;;;;5010488;28;20129;-77
2022/07/28 09:18:16;;;;;;;5.80;1.23;;;31.40;46.80;;;;;;5013556;28;20180;-77
2022/07/28 09:20:43;;;;;;;3.95;1.45;;;30.90;46.00;;;;;;5016733;28;20037;-79
2022/07/28 09:23:10;;;;;;;8.07;1.30;;;32.10;46.40;;;;;;5016681;28;20391;-78
2022/07/28 09:25:36;;;;;;;8.38;2.38;;;31.20;45.30;;;;;;5017750;28;20026;-78
2022/07/28 09:28:12;;;;;;;4.72;1.17;;;31.00;45.60;;;;;;5015613;28;20107;-80
2022/07/28 09:30:40;;;;;;;2.88;0.95;;;32.10;44.20;;;;;;5015703;28;20041;-75
2022/07/28 09:33:21;;;;;;;5.00;1.77;;;31.90;43.30;;;;;;5016745;28;20034;-78
2022/07/28 09:35:54;;;;;;;5.18;0.90;;;31.80;43.90;;;;;;5016124;28;20069;-78
2022/07/28 09:38:21;;;;;;;3.08;1.40;;;32.20;42.80;;;;;;5016927;28;20088;-76
2022/07/28 09:40:58;;;;;;;;;;;31.80;44.10;;;;;;5015476;28;20026;-79
2022/07/28 09:43:42;;;;;;;6.40;1.67;;;31.50;41.80;;;;;;5018575;28;20239;-78
2022/07/28 09:46:09;;;;;;;3.78;1.08;;;31.90;42.10;;;;;;5020807;28;20053;-74
2022/07/28 09:48:48;;;;;;;3.78;0.90;;;31.50;41.50;;;;;;5018448;28;20025;-75
2022/07/28 09:51:23;;;;;;;4.13;0.90;;;31.40;42.50;;;;;;5017181;28;20044;-74
2022/07/28 09:53:51;;;;;;;6.10;0.93;;;31.20;42.50;;;;;;5020951;28;20134;-77
2022/07/28 09:56:17;;;;;;;5.28;1.38;;;30.60;41.90;;;;;;5016905;28;20101;-79
2022/07/28 09:58:56;;;;;;;6.47;1.00;;;29.80;43.00;;;;;;5015531;28;20181;-78
2022/07/28 10:01:23;;;;;;;9.88;1.55;;;29.60;43.80;;;;;;5013479;28;20034;-81
2022/07/28 10:03:57;;;;;;;7.82;1.02;;;29.60;44.00;;;;;;5014358;28;20038;-78
2022/07/28 10:06:27;;;;;;;6.90;0.80;;;29.50;44.00;;;;;;5013156;28;20030;-79
2022/07/28 10:08:54;;;;;;;4.80;0.90;;;28.80;44.40;;;;;;5013244;28;20125;-81
2022/07/28 10:11:26;;;;;;;8.88;1.05;;;28.80;44.60;;;;;;5013672;28;20026;-78
2022/07/28 10:13:52;;;;;;;3.70;0.80;;;28.20;44.90;;;;;;5013963;28;20025;-79
2022/07/28 10:16:19;;;;;;;13.57;1.33;;;27.90;45.90;;;;;;5013253;28;20077;-78
2022/07/28 10:18:46;;;;;;;3.45;1.00;;;27.50;46.60;;;;;;5012138;28;20053;-78
2022/07/28 10:21:14;;;;;;;2.67;1.03;;;27.40;46.60;;;;;;5013055;28;20041;-77
2022/07/28 10:23:49;;;;;;;7.97;1.30;;;26.60;47.20;;;;;;5012841;28;20113;-77
2022/07/28 10:26:18;;;;;;;9.88;1.83;;;26.70;47.30;;;;;;5013268;28;20033;-77
2022/07/28 10:28:50;;;;;;;7.85;1.67;;;26.20;47.40;;;;;;5014190;28;20053;-77
2022/07/28 10:31:34;;;;;;;3.63;1.13;;;25.70;48.20;;;;;;5012054;28;20040;-76
2022/07/28 10:34:02;;;;;;;6.85;2.03;;;25.90;48.90;;;;;;5013126;28;20033;-84
2022/07/28 10:36:28;;;;;;;;;;;25.90;49.10;;;;;;5013454;28;20227;-74
2022/07/28 10:39:02;;;;;;;122.68;63.28;;;25.80;48.80;;;;;;5013369;28;20403;-78
2022/07/28 10:41:33;;;;;;;6.00;3.17;;;26.00;49.30;;;;;;5013300;28;20030;-76
2022/07/28 10:44:01;;;;;;;29.00;17.88;;;26.00;49.20;;;;;;5013189;28;20105;-73
2022/07/28 10:46:29;;;;;;;90.82;48.33;;;26.00;48.40;;;;;;5013774;28;20105;-74
2022/07/28 10:48:55;;;;;;;5.57;2.92;;;26.00;49.00;;;;;;5012924;28;20034;-74
2022/07/28 10:51:21;;;;;;;4.90;0.90;;;25.80;49.00;;;;;;5012541;28;20045;-73
2022/07/28 10:53:54;;;;;;;4.30;1.00;;;25.70;49.10;;;;;;5010706;28;20105;-73
2022/07/28 10:56:34;;;;;;;6.22;1.45;;;25.90;49.30;;;;;;5012091;28;20038;-73
2022/07/28 10:59:19;;;;;;;6.25;1.33;;;26.10;49.70;;;;;;5011909;28;20030;-73
2022/07/28 11:01:44;;;;;;;6.43;1.02;;;25.70;49.10;;;;;;5012318;28;20103;-73
2022/07/28 11:04:46;;;;;;;4.63;1.20;;;25.70;49.10;;;;;;5012032;28;20084;-72
2022/07/28 11:07:15;;;;;;;5.25;0.65;;;25.50;49.10;;;;;;5011937;28;20021;-73
2022/07/28 11:09:41;;;;;;;3.55;1.15;;;25.50;48.90;;;;;;5012652;28;20053;-76
2022/07/28 11:12:07;;;;;;;5.05;1.00;;;25.40;49.40;;;;;;5012382;28;20029;-75
2022/07/28 11:14:36;;;;;;;3.97;1.02;;;25.30;49.20;;;;;;5011848;28;20048;-72
2022/07/28 11:17:04;;;;;;;5.18;1.00;;;25.30;49.60;;;;;;5011793;28;20041;-73
2022/07/28 11:19:43;;;;;;;5.47;1.08;;;25.40;49.90;;;;;;5012297;28;20054;-72
2022/07/28 11:24:56;;;;;;;10.27;1.60;;;25.30;50.20;;;;;;5012058;28;20034;-73
2022/07/28 11:27:44;;;;;;;9.35;2.90;;;25.50;50.30;;;;;;5011778;28;20110;-74
2022/07/28 11:30:31;;;;;;;2.67;0.93;;;25.40;50.10;;;;;;5012009;28;20104;-78
2022/07/28 11:33:01;;;;;;;3.07;1.00;;;25.60;49.60;;;;;;5011826;28;20045;-76
2022/07/28 11:35:37;;;;;;;3.40;1.27;;;25.70;49.30;;;;;;5012114;28;20251;-76
2022/07/28 11:38:02;;;;;;;7.28;3.78;;;25.50;49.60;;;;;;5011709;28;20064;-75
2022/07/28 11:40:29;;;;;;;3.47;1.25;;;25.60;49.40;;;;;;5011953;28;20111;-72
2022/07/28 11:43:24;;;;;;;3.30;0.88;;;25.60;48.90;;;;;;5011779;28;20037;-73
2022/07/28 11:46:04;;;;;;;10.15;1.27;;;25.60;48.70;;;;;;5011439;28;20038;-74
2022/07/28 11:48:31;;;;;;;3.45;1.08;;;25.60;49.00;;;;;;5010390;28;20130;-76
2022/07/28 11:51:06;;;;;;;3.00;0.90;;;25.50;48.60;;;;;;5011676;28;20045;-73
2022/07/28 11:53:48;;;;;;;213.55;141.70;;;25.30;49.70;;;;;;5011610;28;20283;-72
2022/07/28 11:56:21;;;;;;;32.83;17.23;;;25.40;49.20;;;;;;5011361;28;20045;-75
2022/07/28 11:58:58;;;;;;;6.70;1.50;;;25.30;49.20;;;;;;5011717;28;20033;-74
2022/07/28 12:01:24;;;;;;;4.80;1.30;;;25.20;49.70;;;;;;5010567;28;20332;-73
2022/07/28 12:03:52;;;;;;;8.63;1.40;;;25.40;55.20;;;;;;5011752;28;20092;-73
2022/07/28 12:06:19;;;;;;;4.75;1.05;;;25.50;49.80;;;;;;5010753;28;20049;-75
2022/07/28 12:09:00;;;;;;;5.23;1.17;;;25.60;49.40;;;;;;5010144;28;20054;-74
2022/07/28 12:11:31;;;;;;;6.95;1.10;;;25.60;49.20;;;;;;5011534;28;20037;-75
2022/07/28 12:13:59;;;;;;;5.20;1.33;;;25.60;49.10;;;;;;5012453;28;20030;-75
2022/07/28 12:16:29;;;;;;;5.57;0.93;;;25.60;48.60;;;;;;5012623;28;20026;-76
2022/07/28 12:18:56;;;;;;;2.38;1.17;;;25.60;48.70;;;;;;5011519;28;20137;-75
2022/07/28 12:21:44;;;;;;;5.50;0.93;;;25.60;49.20;;;;;;5011742;28;20034;-75
2022/07/28 12:24:14;;;;;;;8.30;1.35;;;25.50;48.50;;;;;;5011291;28;20033;-75
2022/07/28 12:26:41;;;;;;;2.97;1.00;;;25.20;49.10;;;;;;5011525;28;20113;-76
2022/07/28 12:29:09;;;;;;;8.10;1.20;;;25.20;49.20;;;;;;5011111;28;20037;-75
2022/07/28 12:31:36;;;;;;;5.07;1.00;;;25.20;49.30;;;;;;5010242;28;20121;-74
2022/07/28 12:34:05;;;;;;;3.53;0.97;;;25.20;49.70;;;;;;5010626;28;20372;-73
2022/07/28 12:36:33;;;;;;;5.93;1.20;;;25.40;50.20;;;;;;5010986;28;20084;-72
2022/07/28 12:39:00;;;;;;;7.45;1.17;;;25.20;49.90;;;;;;5009734;28;20117;-74
2022/07/28 12:41:39;;;;;;;5.90;1.13;;;25.00;49.90;;;;;;5009541;28;20083;-75
2022/07/28 12:44:05;;;;;;;9.40;1.15;;;25.10;49.90;;;;;;5010696;28;20030;-75
2022/07/28 12:46:31;;;;;;;65.03;39.88;;;25.20;50.00;;;;;;5009670;28;20321;-74
2022/07/28 12:48:59;;;;;;;339.35;206.23;;;25.20;49.30;;;;;;5010439;28;20030;-75
2022/07/28 12:51:31;;;;;;;17.98;10.98;;;25.10;49.30;;;;;;5010753;28;20038;-76
2022/07/28 12:53:56;;;;;;;9.35;2.88;;;25.00;49.50;;;;;;5010429;28;20069;-74
2022/07/28 12:56:22;;;;;;;3.25;1.30;;;25.00;49.10;;;;;;5010391;28;20326;-71
2022/07/28 12:58:55;;;;;;;2.05;0.93;;;24.90;48.70;;;;;;5011048;28;20034;-76